createdAt,value
2023-05-02T00:01:05.740Z,23.52
2023-05-02T00:03:33.517Z,30.98
2023-05-02T00:06:01.141Z,26.05
2023-05-02T00:08:28.684Z,21.92
2023-05-02T00:10:55.948Z,21.98
2023-05-02T00:13:23.276Z,22.40
2023-05-02T00:15:50.748Z,21.05
2023-05-02T00:18:18.124Z,17.75
2023-05-02T00:20:45.747Z,24.20
2023-05-02T00:23:13.432Z,21.90
2023-05-02T00:25:47.089Z,20.48
2023-05-02T00:28:14.324Z,25.38
2023-05-02T00:30:47.985Z,20.20
2023-05-02T00:33:15.898Z,23.35
2023-05-02T00:35:43.181Z,17.73
2023-05-02T00:38:10.592Z,28.35
2023-05-02T00:40:48.171Z,26.48
2023-05-02T00:43:16.015Z,28.13
2023-05-02T00:45:43.971Z,26.38
2023-05-02T00:48:11.504Z,22.23
2023-05-02T00:50:43.281Z,32.17
2023-05-02T00:53:11.491Z,24.98
2023-05-02T00:55:39.000Z,23.35
2023-05-02T00:58:09.556Z,21.08
2023-05-02T01:00:42.706Z,30.88
2023-05-02T01:03:22.954Z,24.05
2023-05-02T01:05:55.442Z,23.80
2023-05-02T01:08:42.921Z,24.10
2023-05-02T01:11:19.918Z,23.15
2023-05-02T01:13:47.848Z,25.35
2023-05-02T01:16:15.878Z,21.75
2023-05-02T01:18:44.219Z,23.48
2023-05-02T01:21:12.284Z,17.23
2023-05-02T01:23:44.619Z,16.02
2023-05-02T01:26:21.269Z,16.42
2023-05-02T01:29:02.073Z,22.10
2023-05-02T01:31:31.950Z,14.55
2023-05-02T01:34:00.814Z,18.10
2023-05-02T01:36:31.075Z,16.25
2023-05-02T01:38:59.208Z,22.38
2023-05-02T01:41:27.533Z,18.20
2023-05-02T01:43:56.090Z,22.25
2023-05-02T01:46:24.389Z,17.70
2023-05-02T01:48:59.010Z,20.40
2023-05-02T01:51:31.685Z,20.45
2023-05-02T01:54:05.091Z,16.47
2023-05-02T01:56:34.717Z,27.13
2023-05-02T01:59:03.204Z,20.27
2023-05-02T02:01:31.029Z,16.38
2023-05-02T02:04:00.045Z,18.02
2023-05-02T02:06:27.734Z,25.30
2023-05-02T02:08:55.151Z,22.02
2023-05-02T02:11:25.819Z,20.25
2023-05-02T02:13:56.026Z,18.13
2023-05-02T02:16:25.697Z,15.98
2023-05-02T02:18:54.865Z,19.85
2023-05-02T02:21:23.176Z,12.88
2023-05-02T02:23:51.825Z,17.58
2023-05-02T02:26:20.583Z,26.60
2023-05-02T02:28:48.625Z,16.67
2023-05-02T02:31:15.944Z,19.23
2023-05-02T02:33:44.250Z,23.67
2023-05-02T02:36:11.430Z,18.33
2023-05-02T02:39:03.691Z,15.38
2023-05-02T02:41:40.521Z,11.90
2023-05-02T02:44:14.927Z,14.73
2023-05-02T02:46:56.414Z,13.55
2023-05-02T02:49:27.041Z,11.90
2023-05-02T02:51:54.561Z,16.42
2023-05-02T02:54:30.798Z,10.32
2023-05-02T02:57:02.792Z,11.63
2023-05-02T02:59:41.179Z,16.77
2023-05-02T03:02:10.422Z,17.42
2023-05-02T03:04:42.140Z,13.05
2023-05-02T03:07:09.952Z,13.48
2023-05-02T03:09:47.826Z,13.15
2023-05-02T03:12:21.136Z,10.48
2023-05-02T03:14:49.728Z,13.45
2023-05-02T03:17:17.850Z,16.83
2023-05-02T03:19:47.156Z,19.23
2023-05-02T03:22:14.507Z,14.55
2023-05-02T03:24:41.695Z,14.70
2023-05-02T03:27:10.713Z,12.50
2023-05-02T03:29:41.678Z,12.77
2023-05-02T03:32:10.617Z,10.80
2023-05-02T03:34:39.444Z,16.80
2023-05-02T03:37:07.000Z,12.88
2023-05-02T03:39:34.463Z,15.95
2023-05-02T03:42:03.304Z,14.38
2023-05-02T03:44:30.640Z,11.73
2023-05-02T03:46:57.984Z,16.33
2023-05-02T03:49:25.265Z,15.73
2023-05-02T03:51:54.056Z,16.27
2023-05-02T03:54:27.892Z,11.25
2023-05-02T03:56:55.875Z,14.73
2023-05-02T03:59:32.860Z,16.38
2023-05-02T04:02:00.963Z,7.25
2023-05-02T04:04:38.696Z,10.73
2023-05-02T04:07:07.813Z,12.40
2023-05-02T04:09:35.106Z,10.13
2023-05-02T04:12:07.961Z,12.65
2023-05-02T04:14:38.620Z,9.98
2023-05-02T04:17:06.826Z,8.85
2023-05-02T04:19:44.827Z,7.55
2023-05-02T04:22:12.898Z,9.93
2023-05-02T04:24:45.341Z,13.07
2023-05-02T04:27:15.281Z,7.72
2023-05-02T04:29:43.201Z,10.32
2023-05-02T04:32:12.730Z,13.77
2023-05-02T04:34:40.677Z,7.55
2023-05-02T04:37:08.474Z,8.13
2023-05-02T04:39:36.617Z,8.52
2023-05-02T04:42:10.661Z,17.30
2023-05-02T04:44:45.281Z,11.75
2023-05-02T04:47:13.914Z,20.58
2023-05-02T04:49:41.607Z,8.27
2023-05-02T04:52:08.875Z,9.57
2023-05-02T04:54:36.424Z,8.95
2023-05-02T04:57:06.486Z,10.48
2023-05-02T04:59:38.436Z,8.70
2023-05-02T05:02:08.237Z,8.82
2023-05-02T05:04:36.453Z,14.60
2023-05-02T05:07:04.332Z,13.70
2023-05-02T05:09:32.079Z,12.77
2023-05-02T05:11:59.460Z,12.15
2023-05-02T05:14:26.758Z,15.38
2023-05-02T05:16:56.481Z,13.98
2023-05-02T05:19:23.964Z,14.73
2023-05-02T05:21:51.714Z,13.38
2023-05-02T05:24:20.430Z,13.52
2023-05-02T05:26:48.983Z,14.27
2023-05-02T05:29:18.114Z,17.73
2023-05-02T05:31:45.487Z,19.25
2023-05-02T05:34:15.940Z,16.27
2023-05-02T05:36:44.756Z,10.07
2023-05-02T05:39:13.058Z,19.10
2023-05-02T05:41:43.134Z,12.75
2023-05-02T05:44:12.206Z,17.50
2023-05-02T05:46:39.565Z,12.70
2023-05-02T05:49:08.975Z,15.43
2023-05-02T05:51:37.080Z,13.98
2023-05-02T05:54:04.728Z,12.55
2023-05-02T05:56:32.296Z,12.98
2023-05-02T05:59:07.211Z,14.18
2023-05-02T06:01:35.906Z,14.90
2023-05-02T06:04:05.120Z,10.55
2023-05-02T06:06:34.359Z,6.35
2023-05-02T06:09:03.266Z,10.68
2023-05-02T06:11:32.008Z,8.07
2023-05-02T06:13:59.468Z,2.58
2023-05-02T06:16:26.817Z,8.20
2023-05-02T06:18:54.040Z,4.03
2023-05-02T06:21:21.335Z,5.60
2023-05-02T06:23:48.654Z,3.00
2023-05-02T06:26:16.554Z,8.88
2023-05-02T06:28:44.303Z,5.05
2023-05-02T06:31:11.554Z,9.18
2023-05-02T06:33:38.891Z,3.08
2023-05-02T06:36:06.222Z,6.82
2023-05-02T06:38:33.432Z,7.25
2023-05-02T06:41:00.807Z,5.90
2023-05-02T06:43:28.257Z,2.05
2023-05-02T06:45:56.406Z,5.10
2023-05-02T06:48:23.784Z,1.40
2023-05-02T06:50:53.913Z,12.68
2023-05-02T06:53:21.208Z,5.40
2023-05-02T06:55:49.217Z,9.75
2023-05-02T06:58:16.559Z,2.72
2023-05-02T07:00:43.840Z,2.33
2023-05-02T07:03:11.467Z,1.30
2023-05-02T07:05:38.916Z,8.40
2023-05-02T07:08:06.538Z,4.13
2023-05-02T07:10:34.060Z,4.95
2023-05-02T07:13:01.411Z,3.05
2023-05-02T07:15:28.658Z,3.72
2023-05-02T07:17:55.911Z,3.00
2023-05-02T07:20:23.609Z,2.40
2023-05-02T07:22:51.259Z,4.03
2023-05-02T07:25:18.715Z,3.78
2023-05-02T07:27:46.338Z,4.13
2023-05-02T07:30:13.947Z,9.07
2023-05-02T07:32:41.377Z,2.30
2023-05-02T07:35:09.714Z,3.30
2023-05-02T07:37:37.220Z,5.82
2023-05-02T07:40:04.947Z,2.50
2023-05-02T07:42:32.759Z,6.30
2023-05-02T07:45:00.450Z,1.42
2023-05-02T07:47:27.747Z,7.13
2023-05-02T07:49:55.495Z,6.18
2023-05-02T07:52:22.938Z,2.40
2023-05-02T07:54:50.432Z,10.57
2023-05-02T07:57:17.908Z,6.63
2023-05-02T07:59:45.386Z,2.42
2023-05-02T08:02:13.919Z,4.53
2023-05-02T08:04:41.834Z,5.07
2023-05-02T08:07:09.366Z,4.70
2023-05-02T08:10:01.738Z,2.38
2023-05-02T08:12:29.452Z,2.15
2023-05-02T08:14:56.755Z,3.17
2023-05-02T08:17:24.214Z,3.80
2023-05-02T08:19:51.561Z,7.00
2023-05-02T08:22:18.680Z,6.57
2023-05-02T08:24:45.880Z,7.72
2023-05-02T08:27:13.134Z,5.25
2023-05-02T08:29:40.513Z,6.90
2023-05-02T08:32:08.025Z,8.30
2023-05-02T08:34:35.577Z,6.53
2023-05-02T08:37:02.952Z,6.30
2023-05-02T08:39:33.805Z,8.85
2023-05-02T08:42:01.534Z,22.40
2023-05-02T08:44:28.959Z,6.93
2023-05-02T08:46:56.814Z,3.90
2023-05-02T08:49:25.209Z,7.20
2023-05-02T08:51:53.042Z,6.57
2023-05-02T08:54:21.153Z,6.13
2023-05-02T08:56:48.662Z,5.72
2023-05-02T08:59:15.918Z,4.75
2023-05-02T09:01:46.393Z,12.13
2023-05-02T09:04:14.667Z,4.72
2023-05-02T09:06:42.109Z,4.75
2023-05-02T09:09:09.497Z,3.28
2023-05-02T09:11:37.420Z,3.78
2023-05-02T09:14:14.517Z,4.15
2023-05-02T09:16:41.903Z,3.45
2023-05-02T09:19:09.382Z,2.30
2023-05-02T09:21:39.984Z,5.82
2023-05-02T09:24:21.213Z,5.93
2023-05-02T09:27:13.020Z,8.82
2023-05-02T09:30:09.213Z,6.28
2023-05-02T09:32:46.669Z,3.08
2023-05-02T09:35:24.055Z,2.50
2023-05-02T09:37:54.330Z,4.82
2023-05-02T09:40:23.347Z,4.32
2023-05-02T09:42:50.908Z,4.85
2023-05-02T09:45:25.208Z,2.00
2023-05-02T09:47:53.316Z,3.90
2023-05-02T09:50:36.727Z,6.43
2023-05-02T09:53:04.910Z,23.35
2023-05-02T09:55:32.439Z,3.03
2023-05-02T09:58:08.703Z,3.88
2023-05-02T10:00:40.526Z,8.90
2023-05-02T10:03:11.332Z,4.63
2023-05-02T10:05:39.594Z,13.18
2023-05-02T10:08:07.515Z,4.70
2023-05-02T10:10:37.200Z,6.75
2023-05-02T10:13:05.369Z,4.70
2023-05-02T10:15:34.051Z,3.40
2023-05-02T10:18:02.187Z,6.43
2023-05-02T10:20:35.730Z,10.77
2023-05-02T10:25:30.612Z,6.93
2023-05-02T10:27:59.340Z,2.40
2023-05-02T10:30:27.314Z,5.97
2023-05-02T10:32:54.793Z,1.83
2023-05-02T10:35:22.201Z,6.10
2023-05-02T10:37:49.763Z,4.22
2023-05-02T10:40:17.173Z,2.08
2023-05-02T10:42:46.207Z,3.97
2023-05-02T10:45:14.647Z,5.50
2023-05-02T10:47:42.134Z,5.68
2023-05-02T10:50:09.482Z,5.72
2023-05-02T10:52:38.509Z,4.53
2023-05-02T10:55:19.854Z,3.88
2023-05-02T10:57:59.426Z,3.40
2023-05-02T11:00:31.045Z,3.67
2023-05-02T11:02:58.581Z,14.70
2023-05-02T11:05:26.752Z,5.60
2023-05-02T11:08:12.666Z,4.22
2023-05-02T11:10:39.901Z,6.50
2023-05-02T11:13:07.175Z,3.63
2023-05-02T11:15:35.252Z,6.55
2023-05-02T11:18:09.612Z,11.05
2023-05-02T11:20:39.420Z,8.25
2023-05-02T11:23:21.777Z,8.35
2023-05-02T11:25:49.977Z,5.18
2023-05-02T11:28:36.186Z,4.80
2023-05-02T11:31:03.841Z,6.28
2023-05-02T11:33:31.304Z,4.07
2023-05-02T11:35:58.838Z,2.55
2023-05-02T11:38:26.958Z,4.68
2023-05-02T11:40:58.464Z,7.13
2023-05-02T11:43:28.237Z,1.67
2023-05-02T11:45:59.789Z,3.63
2023-05-02T11:48:27.780Z,7.40
2023-05-02T11:51:02.086Z,3.00
2023-05-02T11:53:30.231Z,9.77
2023-05-02T11:55:58.498Z,5.50
2023-05-02T11:58:30.044Z,3.15
2023-05-02T12:00:57.451Z,5.85
2023-05-02T12:03:27.708Z,9.27
2023-05-02T12:05:55.430Z,3.22
2023-05-02T12:08:27.333Z,8.25
2023-05-02T12:10:55.622Z,1.27
2023-05-02T12:13:26.959Z,5.63
2023-05-02T12:15:55.027Z,6.72
2023-05-02T12:18:26.999Z,7.30
2023-05-02T12:20:55.430Z,4.30
2023-05-02T12:23:23.888Z,3.63
2023-05-02T12:25:51.366Z,8.07
2023-05-02T12:28:23.925Z,3.88
2023-05-02T12:30:52.239Z,4.22
2023-05-02T12:33:19.667Z,2.10
2023-05-02T12:35:47.413Z,7.70
2023-05-02T12:38:20.265Z,3.35
2023-05-02T12:40:48.978Z,5.23
2023-05-02T12:43:16.421Z,8.82
2023-05-02T12:45:43.829Z,4.53
2023-05-02T12:48:27.438Z,6.30
2023-05-02T12:50:55.417Z,2.75
2023-05-02T12:53:43.763Z,5.38
2023-05-02T12:56:11.693Z,5.80
2023-05-02T12:58:46.888Z,7.75
2023-05-02T13:01:17.391Z,5.30
2023-05-02T13:03:45.031Z,4.30
2023-05-02T13:06:12.405Z,8.30
2023-05-02T13:08:39.730Z,3.22
2023-05-02T13:11:06.933Z,7.10
2023-05-02T13:13:35.326Z,6.18
2023-05-02T13:16:03.544Z,3.38
2023-05-02T13:18:31.046Z,5.72
2023-05-02T13:20:58.397Z,3.15
2023-05-02T13:23:25.895Z,4.03
2023-05-02T13:25:53.263Z,7.75
2023-05-02T13:28:20.608Z,7.60
2023-05-02T13:30:47.916Z,3.65
2023-05-02T13:33:15.314Z,6.57
2023-05-02T13:35:42.774Z,3.30
2023-05-02T13:38:10.154Z,6.60
2023-05-02T13:40:37.471Z,8.85
2023-05-02T13:43:05.204Z,5.07
2023-05-02T13:45:32.467Z,2.35
2023-05-02T13:47:59.681Z,2.80
2023-05-02T13:50:26.862Z,6.80
2023-05-02T13:52:54.084Z,4.25
2023-05-02T13:55:21.540Z,8.23
2023-05-02T13:57:49.768Z,7.32
2023-05-02T14:00:17.735Z,3.78
2023-05-02T14:02:48.373Z,2.17
2023-05-02T14:05:15.975Z,4.32
2023-05-02T14:07:43.197Z,2.97
2023-05-02T14:10:11.836Z,5.93
2023-05-02T14:12:39.038Z,4.25
2023-05-02T14:15:06.631Z,4.78
2023-05-02T14:17:34.014Z,10.13
2023-05-02T14:20:01.630Z,3.55
2023-05-02T14:22:29.162Z,5.50
2023-05-02T14:24:56.438Z,5.15
2023-05-02T14:27:23.923Z,3.58
2023-05-02T14:29:51.268Z,3.63
2023-05-02T14:32:18.497Z,4.22
2023-05-02T14:34:45.912Z,8.65
2023-05-02T14:37:13.244Z,3.30
2023-05-02T14:39:42.416Z,5.25
2023-05-02T14:42:09.815Z,5.05
2023-05-02T14:44:38.719Z,5.43
2023-05-02T14:47:06.041Z,4.28
2023-05-02T14:49:34.378Z,2.55
2023-05-02T14:52:01.971Z,5.47
2023-05-02T14:54:30.330Z,11.35
2023-05-02T14:56:57.884Z,2.55
2023-05-02T14:59:25.324Z,4.57
2023-05-02T15:01:53.071Z,13.63
2023-05-02T15:04:20.669Z,9.18
2023-05-02T15:06:48.373Z,3.78
2023-05-02T15:09:16.146Z,4.10
2023-05-02T15:11:44.646Z,7.63
2023-05-02T15:14:12.145Z,6.47
2023-05-02T15:16:39.712Z,4.35
2023-05-02T15:19:07.205Z,2.85
2023-05-02T15:21:35.341Z,5.88
2023-05-02T15:24:03.748Z,8.75
2023-05-02T15:26:31.252Z,6.20
2023-05-02T15:28:58.663Z,6.03
2023-05-02T15:31:26.117Z,5.85
2023-05-02T15:33:53.581Z,4.40
2023-05-02T15:36:21.194Z,2.88
2023-05-02T15:38:48.500Z,3.28
2023-05-02T15:41:16.004Z,6.68
2023-05-02T15:43:43.454Z,2.30
2023-05-02T15:46:11.692Z,6.97
2023-05-02T15:48:39.144Z,8.02
2023-05-02T15:51:06.526Z,5.25
2023-05-02T15:53:34.699Z,3.60
2023-05-02T15:56:02.057Z,7.38
2023-05-02T15:58:29.448Z,5.72
2023-05-02T16:00:56.737Z,7.15
2023-05-02T16:03:24.486Z,4.93
2023-05-02T16:05:54.025Z,7.75
2023-05-02T16:08:21.698Z,3.50
2023-05-02T16:10:49.034Z,5.07
2023-05-02T16:13:16.327Z,4.28
2023-05-02T16:15:43.877Z,5.03
2023-05-02T16:18:11.444Z,5.80
2023-05-02T16:20:39.903Z,4.93
2023-05-02T16:23:07.118Z,8.13
2023-05-02T16:25:34.446Z,4.50
2023-05-02T16:28:01.938Z,4.20
2023-05-02T16:30:29.482Z,8.30
2023-05-02T16:32:56.783Z,3.17
2023-05-02T16:35:24.309Z,5.70
2023-05-02T16:37:51.672Z,7.00
2023-05-02T16:40:19.150Z,4.57
2023-05-02T16:42:46.496Z,4.90
2023-05-02T16:45:14.577Z,6.68
2023-05-02T16:47:41.978Z,4.00
2023-05-02T16:50:09.441Z,3.85
2023-05-02T16:52:38.209Z,5.55
2023-05-02T16:55:06.370Z,4.25
2023-05-02T16:57:33.851Z,4.50
2023-05-02T17:00:02.752Z,8.50
2023-05-02T17:02:30.301Z,6.90
2023-05-02T17:04:57.710Z,2.90
2023-05-02T17:07:25.004Z,4.70
2023-05-02T17:09:52.795Z,6.85
2023-05-02T17:12:22.793Z,3.97
2023-05-02T17:14:50.554Z,8.85
2023-05-02T17:17:19.960Z,6.75
2023-05-02T17:19:48.261Z,4.95
2023-05-02T17:22:15.837Z,6.00
2023-05-02T17:24:45.439Z,9.73
2023-05-02T17:27:13.000Z,10.73
2023-05-02T17:29:40.393Z,6.13
2023-05-02T17:32:07.712Z,6.28
2023-05-02T17:34:36.682Z,5.05
2023-05-02T17:37:04.031Z,3.30
2023-05-02T17:39:31.503Z,2.83
2023-05-02T17:41:59.838Z,3.00
2023-05-02T17:44:27.047Z,4.95
2023-05-02T17:46:55.346Z,6.97
2023-05-02T17:49:22.887Z,4.25
2023-05-02T17:51:50.448Z,3.67
2023-05-02T17:54:17.752Z,5.30
2023-05-02T17:56:45.032Z,7.50
2023-05-02T17:59:12.316Z,7.22
2023-05-02T18:01:40.037Z,5.45
2023-05-02T18:04:07.788Z,3.78
2023-05-02T18:06:35.360Z,3.28
2023-05-02T18:09:02.647Z,8.30
2023-05-02T18:11:39.827Z,7.10
2023-05-02T18:14:07.210Z,14.00
2023-05-02T18:16:36.246Z,5.07
2023-05-02T18:19:03.946Z,2.85
2023-05-02T18:21:33.916Z,4.97
2023-05-02T18:24:01.249Z,12.45
2023-05-02T18:26:28.523Z,5.15
2023-05-02T18:28:55.815Z,6.90
2023-05-02T18:31:24.166Z,6.47
2023-05-02T18:33:53.663Z,8.40
2023-05-02T18:36:28.863Z,5.00
2023-05-02T18:38:56.575Z,5.00
2023-05-02T18:41:24.003Z,5.40
2023-05-02T18:43:51.366Z,7.18
2023-05-02T18:46:18.801Z,7.93
2023-05-02T18:48:46.357Z,8.25
2023-05-02T18:51:13.811Z,7.40
2023-05-02T18:53:41.088Z,2.72
2023-05-02T18:56:14.750Z,5.60
2023-05-02T18:58:42.885Z,5.03
2023-05-02T19:01:14.751Z,5.07
2023-05-02T19:03:43.507Z,7.78
2023-05-02T19:06:11.312Z,15.73
2023-05-02T19:08:40.189Z,9.93
2023-05-02T19:11:08.948Z,5.70
2023-05-02T19:13:36.256Z,9.65
2023-05-02T19:16:03.700Z,12.90
2023-05-02T19:18:31.119Z,8.40
2023-05-02T19:20:58.608Z,4.50
2023-05-02T19:23:25.873Z,3.30
2023-05-02T19:25:53.287Z,8.35
2023-05-02T19:28:20.869Z,8.27
2023-05-02T19:30:48.164Z,12.75
2023-05-02T19:33:15.688Z,10.30
2023-05-02T19:35:43.066Z,7.95
2023-05-02T19:38:10.472Z,4.38
2023-05-02T19:40:37.665Z,4.50
2023-05-02T19:43:04.925Z,7.78
2023-05-02T19:45:32.316Z,6.30
2023-05-02T19:47:59.476Z,2.28
2023-05-02T19:50:26.864Z,6.47
2023-05-02T19:52:53.997Z,4.68
2023-05-02T19:55:21.355Z,4.97
2023-05-02T19:57:48.802Z,7.00
2023-05-02T20:00:16.308Z,15.60
2023-05-02T20:02:45.149Z,7.07
2023-05-02T20:05:12.695Z,5.50
2023-05-02T20:07:40.145Z,8.63
2023-05-02T20:10:07.903Z,6.40
2023-05-02T20:12:35.198Z,7.10
2023-05-02T20:15:02.726Z,5.95
2023-05-02T20:17:30.106Z,11.23
2023-05-02T20:19:57.497Z,8.93
2023-05-02T20:22:24.715Z,4.40
2023-05-02T20:24:52.066Z,6.72
2023-05-02T20:27:19.339Z,4.97
2023-05-02T20:29:46.585Z,8.45
2023-05-02T20:32:13.967Z,3.85
2023-05-02T20:34:41.292Z,6.63
2023-05-02T20:37:10.095Z,6.03
2023-05-02T20:39:37.711Z,7.55
2023-05-02T20:42:05.660Z,8.63
2023-05-02T20:44:36.443Z,5.63
2023-05-02T20:47:04.002Z,9.77
2023-05-02T20:49:32.372Z,5.65
2023-05-02T20:52:03.908Z,14.57
2023-05-02T20:54:31.430Z,4.38
2023-05-02T20:56:58.757Z,13.93
2023-05-02T20:59:26.090Z,5.70
2023-05-02T21:01:53.408Z,5.78
2023-05-02T21:04:20.888Z,6.10
2023-05-02T21:06:48.226Z,6.00
2023-05-02T21:09:17.627Z,13.02
2023-05-02T21:11:45.885Z,4.35
2023-05-02T21:14:13.173Z,3.92
2023-05-02T21:16:40.394Z,9.10
2023-05-02T21:19:07.702Z,8.27
2023-05-02T21:21:35.167Z,5.90
2023-05-02T21:24:03.963Z,9.07
2023-05-02T21:26:31.568Z,4.78
2023-05-02T21:28:58.966Z,7.47
2023-05-02T21:31:26.412Z,5.00
2023-05-02T21:33:53.788Z,5.07
2023-05-02T21:36:20.978Z,5.20
2023-05-02T21:38:48.308Z,8.70
2023-05-02T21:41:15.555Z,10.88
2023-05-02T21:43:42.951Z,5.47
2023-05-02T21:46:13.322Z,4.50
2023-05-02T21:48:40.763Z,4.60
2023-05-02T21:51:08.701Z,2.33
2023-05-02T21:53:36.096Z,8.68
2023-05-02T21:56:03.414Z,10.02
2023-05-02T21:58:30.754Z,4.00
2023-05-02T22:00:58.646Z,5.68
2023-05-02T22:03:27.207Z,5.63
2023-05-02T22:05:54.633Z,2.95
2023-05-02T22:08:21.945Z,2.15
2023-05-02T22:10:49.142Z,1.45
2023-05-02T22:13:16.455Z,5.13
2023-05-02T22:15:45.452Z,5.00
2023-05-02T22:18:14.096Z,1.55
2023-05-02T22:20:45.213Z,1.75
2023-05-02T22:23:13.157Z,3.30
2023-05-02T22:25:41.974Z,1.63
2023-05-02T22:28:12.301Z,1.95
2023-05-02T22:30:43.175Z,2.15
2023-05-02T22:33:10.878Z,3.33
2023-05-02T22:35:38.569Z,3.30
2023-05-02T22:38:08.743Z,7.75
2023-05-02T22:40:36.210Z,2.67
2023-05-02T22:43:03.699Z,7.45
2023-05-02T22:45:31.091Z,3.45
2023-05-02T22:47:58.474Z,2.08
2023-05-02T22:50:26.195Z,3.05
2023-05-02T22:52:56.981Z,3.08
2023-05-02T22:55:24.694Z,2.30
2023-05-02T22:57:52.377Z,1.10
2023-05-02T23:00:19.752Z,5.30
2023-05-02T23:02:47.135Z,1.25
2023-05-02T23:05:14.537Z,4.55
2023-05-02T23:07:42.100Z,3.97
2023-05-02T23:10:09.696Z,5.90
2023-05-02T23:12:36.863Z,3.28
2023-05-02T23:15:04.293Z,2.60
2023-05-02T23:17:31.603Z,1.67
2023-05-02T23:19:58.994Z,2.72
2023-05-02T23:22:26.204Z,1.35
2023-05-02T23:24:53.792Z,2.22
2023-05-02T23:27:21.092Z,2.60
2023-05-02T23:29:49.133Z,5.50
2023-05-02T23:32:16.985Z,3.80
2023-05-02T23:34:44.704Z,3.90
2023-05-02T23:37:12.814Z,3.25
2023-05-02T23:39:40.229Z,3.25
2023-05-02T23:42:07.646Z,2.83
2023-05-02T23:44:34.920Z,1.58
2023-05-02T23:47:02.213Z,4.07
2023-05-02T23:49:29.497Z,3.90
2023-05-02T23:51:56.825Z,5.22
2023-05-02T23:54:24.644Z,6.53
2023-05-02T23:56:53.848Z,5.28
2023-05-02T23:59:21.096Z,4.05
